sensor_id;sensor_type;location;lat;lon;timestamp;pressure;altitude;pressure_sealevel;temperature;humidity
39267;BME280;24967;51.154;13.812;2023-08-17T00:01:31;99730.16;;;22.66;80.44
39267;BME280;24967;51.154;13.812;2023-08-17T00:03:57;99730.25;;;22.59;80.51
39267;BME280;24967;51.154;13.812;2023-08-17T00:06:24;99728.88;;;22.50;80.65
39267;BME280;24967;51.154;13.812;2023-08-17T00:08:51;99724.81;;;22.40;80.53
39267;BME280;24967;51.154;13.812;2023-08-17T00:11:17;99714.63;;;22.36;81.20
39267;BME280;24967;51.154;13.812;2023-08-17T00:13:44;99723.06;;;22.28;82.31
39267;BME280;24967;51.154;13.812;2023-08-17T00:16:10;99731.00;;;22.23;82.97
39267;BME280;24967;51.154;13.812;2023-08-17T00:18:38;99728.75;;;22.20;83.56
39267;BME280;24967;51.154;13.812;2023-08-17T00:21:04;99720.41;;;22.14;83.83
39267;BME280;24967;51.154;13.812;2023-08-17T00:23:31;99718.38;;;22.10;84.27
39267;BME280;24967;51.154;13.812;2023-08-17T00:25:58;99710.09;;;22.05;84.28
39267;BME280;24967;51.154;13.812;2023-08-17T00:28:24;99702.22;;;22.03;83.95
39267;BME280;24967;51.154;13.812;2023-08-17T00:30:51;99714.31;;;22.01;83.73
39267;BME280;24967;51.154;13.812;2023-08-17T00:33:17;99707.44;;;21.98;83.73
39267;BME280;24967;51.154;13.812;2023-08-17T00:35:45;99707.06;;;21.94;83.61
39267;BME280;24967;51.154;13.812;2023-08-17T00:38:12;99714.38;;;21.87;84.20
39267;BME280;24967;51.154;13.812;2023-08-17T00:40:38;99697.19;;;21.82;84.79
39267;BME280;24967;51.154;13.812;2023-08-17T00:43:05;99688.44;;;21.80;85.25
39267;BME280;24967;51.154;13.812;2023-08-17T00:45:31;99684.47;;;21.82;84.84
39267;BME280;24967;51.154;13.812;2023-08-17T00:47:58;99685.19;;;21.71;85.45
39267;BME280;24967;51.154;13.812;2023-08-17T00:50:25;99684.25;;;21.84;83.96
39267;BME280;24967;51.154;13.812;2023-08-17T00:52:55;99686.19;;;21.77;84.22
39267;BME280;24967;51.154;13.812;2023-08-17T00:55:22;99689.31;;;21.73;84.39
39267;BME280;24967;51.154;13.812;2023-08-17T00:57:49;99694.59;;;21.62;85.51
39267;BME280;24967;51.154;13.812;2023-08-17T01:00:17;99686.53;;;21.55;85.85
39267;BME280;24967;51.154;13.812;2023-08-17T01:02:44;99678.06;;;21.45;86.23
39267;BME280;24967;51.154;13.812;2023-08-17T01:05:11;99673.31;;;21.40;86.55
39267;BME280;24967;51.154;13.812;2023-08-17T01:07:37;99689.97;;;21.37;86.59
39267;BME280;24967;51.154;13.812;2023-08-17T01:10:06;99690.00;;;21.31;87.53
39267;BME280;24967;51.154;13.812;2023-08-17T01:12:40;99690.19;;;21.29;87.40
39267;BME280;24967;51.154;13.812;2023-08-17T01:15:11;99687.94;;;21.26;86.92
39267;BME280;24967;51.154;13.812;2023-08-17T01:17:44;99699.41;;;21.21;86.91
39267;BME280;24967;51.154;13.812;2023-08-17T01:20:14;99694.63;;;21.17;87.03
39267;BME280;24967;51.154;13.812;2023-08-17T01:22:45;99695.06;;;21.14;86.68
39267;BME280;24967;51.154;13.812;2023-08-17T01:25:13;99700.91;;;21.11;86.50
39267;BME280;24967;51.154;13.812;2023-08-17T01:27:42;99714.03;;;21.07;86.34
39267;BME280;24967;51.154;13.812;2023-08-17T01:30:12;99715.72;;;21.01;86.34
39267;BME280;24967;51.154;13.812;2023-08-17T01:32:45;99729.31;;;20.75;91.06
39267;BME280;24967;51.154;13.812;2023-08-17T01:35:17;99727.28;;;20.64;93.39
39267;BME280;24967;51.154;13.812;2023-08-17T01:37:47;99736.81;;;20.73;92.72
39267;BME280;24967;51.154;13.812;2023-08-17T01:40:18;99733.88;;;20.74;92.33
39267;BME280;24967;51.154;13.812;2023-08-17T01:42:46;99726.41;;;20.76;91.85
39267;BME280;24967;51.154;13.812;2023-08-17T01:45:13;99731.16;;;20.81;93.23
39267;BME280;24967;51.154;13.812;2023-08-17T01:47:39;99744.22;;;20.84;93.89
39267;BME280;24967;51.154;13.812;2023-08-17T01:50:06;99744.88;;;20.86;93.82
39267;BME280;24967;51.154;13.812;2023-08-17T01:52:33;99747.13;;;20.89;93.36
39267;BME280;24967;51.154;13.812;2023-08-17T01:55:00;99750.03;;;20.88;93.31
39267;BME280;24967;51.154;13.812;2023-08-17T01:57:28;99737.16;;;20.90;92.96
39267;BME280;24967;51.154;13.812;2023-08-17T01:59:54;99733.19;;;20.92;92.85
39267;BME280;24967;51.154;13.812;2023-08-17T02:02:21;99733.81;;;20.94;92.48
39267;BME280;24967;51.154;13.812;2023-08-17T02:04:47;99735.09;;;20.92;92.37
39267;BME280;24967;51.154;13.812;2023-08-17T02:07:14;99727.59;;;20.87;90.96
39267;BME280;24967;51.154;13.812;2023-08-17T02:09:40;99714.34;;;20.72;89.75
39267;BME280;24967;51.154;13.812;2023-08-17T02:12:07;99719.56;;;20.67;88.46
39267;BME280;24967;51.154;13.812;2023-08-17T02:14:35;99715.00;;;20.61;87.75
39267;BME280;24967;51.154;13.812;2023-08-17T02:17:02;99720.63;;;20.59;87.58
39267;BME280;24967;51.154;13.812;2023-08-17T02:19:30;99718.75;;;20.53;86.85
39267;BME280;24967;51.154;13.812;2023-08-17T02:21:57;99722.06;;;20.49;86.79
39267;BME280;24967;51.154;13.812;2023-08-17T02:24:24;99715.22;;;20.46;86.80
39267;BME280;24967;51.154;13.812;2023-08-17T02:26:50;99720.00;;;20.44;87.15
39267;BME280;24967;51.154;13.812;2023-08-17T02:29:17;99720.22;;;20.43;87.61
39267;BME280;24967;51.154;13.812;2023-08-17T02:31:45;99715.84;;;20.35;88.83
39267;BME280;24967;51.154;13.812;2023-08-17T02:34:11;99717.72;;;20.34;89.15
39267;BME280;24967;51.154;13.812;2023-08-17T02:36:38;99719.38;;;20.35;89.42
39267;BME280;24967;51.154;13.812;2023-08-17T02:39:04;99721.25;;;20.35;89.66
39267;BME280;24967;51.154;13.812;2023-08-17T02:41:31;99732.88;;;20.42;89.22
39267;BME280;24967;51.154;13.812;2023-08-17T02:43:58;99728.31;;;20.43;89.29
39267;BME280;24967;51.154;13.812;2023-08-17T02:46:24;99729.31;;;20.48;89.00
39267;BME280;24967;51.154;13.812;2023-08-17T02:48:52;99725.19;;;20.39;89.68
39267;BME280;24967;51.154;13.812;2023-08-17T02:51:19;99724.75;;;20.42;89.48
39267;BME280;24967;51.154;13.812;2023-08-17T02:53:45;99732.25;;;20.47;89.60
39267;BME280;24967;51.154;13.812;2023-08-17T02:56:12;99726.66;;;20.55;88.89
39267;BME280;24967;51.154;13.812;2023-08-17T02:58:38;99718.31;;;20.50;88.67
39267;BME280;24967;51.154;13.812;2023-08-17T03:01:06;99711.06;;;20.50;88.39
39267;BME280;24967;51.154;13.812;2023-08-17T03:03:32;99717.09;;;20.46;88.17
39267;BME280;24967;51.154;13.812;2023-08-17T03:06:00;99709.19;;;20.44;88.22
39267;BME280;24967;51.154;13.812;2023-08-17T03:08:27;99712.94;;;20.43;87.98
39267;BME280;24967;51.154;13.812;2023-08-17T03:10:54;99704.22;;;20.41;87.81
39267;BME280;24967;51.154;13.812;2023-08-17T03:13:20;99707.97;;;20.40;87.72
39267;BME280;24967;51.154;13.812;2023-08-17T03:15:47;99708.59;;;20.35;88.18
39267;BME280;24967;51.154;13.812;2023-08-17T03:18:13;99716.69;;;20.35;88.29
39267;BME280;24967;51.154;13.812;2023-08-17T03:20:40;99711.28;;;20.35;88.34
39267;BME280;24967;51.154;13.812;2023-08-17T03:23:07;99717.91;;;20.33;88.47
39267;BME280;24967;51.154;13.812;2023-08-17T03:25:34;99728.94;;;20.31;88.38
39267;BME280;24967;51.154;13.812;2023-08-17T03:28:01;99728.94;;;20.31;88.14
39267;BME280;24967;51.154;13.812;2023-08-17T03:30:27;99728.13;;;20.31;88.03
39267;BME280;24967;51.154;13.812;2023-08-17T03:32:54;99721.91;;;20.30;87.85
39267;BME280;24967;51.154;13.812;2023-08-17T03:35:20;99724.38;;;20.32;87.73
39267;BME280;24967;51.154;13.812;2023-08-17T03:37:47;99730.00;;;20.30;87.68
39267;BME280;24967;51.154;13.812;2023-08-17T03:40:15;99731.25;;;20.28;87.52
39267;BME280;24967;51.154;13.812;2023-08-17T03:42:41;99717.34;;;20.24;87.83
39267;BME280;24967;51.154;13.812;2023-08-17T03:45:08;99723.34;;;20.20;88.79
39267;BME280;24967;51.154;13.812;2023-08-17T03:47:35;99721.47;;;20.20;88.92
39267;BME280;24967;51.154;13.812;2023-08-17T03:50:01;99725.63;;;20.23;88.96
39267;BME280;24967;51.154;13.812;2023-08-17T03:52:28;99717.34;;;20.24;89.27
39267;BME280;24967;51.154;13.812;2023-08-17T03:54:54;99717.75;;;20.28;89.43
39267;BME280;24967;51.154;13.812;2023-08-17T03:57:22;99711.69;;;20.32;89.22
39267;BME280;24967;51.154;13.812;2023-08-17T03:59:49;99710.03;;;20.38;89.20
39267;BME280;24967;51.154;13.812;2023-08-17T04:02:15;99711.50;;;20.41;89.19
39267;BME280;24967;51.154;13.812;2023-08-17T04:04:42;99701.75;;;20.40;89.10
39267;BME280;24967;51.154;13.812;2023-08-17T04:07:08;99699.25;;;20.38;88.69
39267;BME280;24967;51.154;13.812;2023-08-17T04:09:35;99700.91;;;20.32;87.62
39267;BME280;24967;51.154;13.812;2023-08-17T04:12:01;99711.50;;;20.34;87.45
39267;BME280;24967;51.154;13.812;2023-08-17T04:14:31;99715.66;;;20.36;87.31
39267;BME280;24967;51.154;13.812;2023-08-17T04:16:57;99720.00;;;20.38;87.48
39267;BME280;24967;51.154;13.812;2023-08-17T04:19:24;99709.84;;;20.40;87.55
39267;BME280;24967;51.154;13.812;2023-08-17T04:21:50;99706.91;;;20.41;87.42
39267;BME280;24967;51.154;13.812;2023-08-17T04:24:17;99703.78;;;20.44;87.39
39267;BME280;24967;51.154;13.812;2023-08-17T04:26:43;99716.28;;;20.52;87.49
39267;BME280;24967;51.154;13.812;2023-08-17T04:29:10;99719.81;;;20.52;88.04
39267;BME280;24967;51.154;13.812;2023-08-17T04:31:38;99723.31;;;20.59;88.64
39267;BME280;24967;51.154;13.812;2023-08-17T04:34:05;99729.94;;;20.70;88.80
39267;BME280;24967;51.154;13.812;2023-08-17T04:36:31;99724.94;;;20.80;88.79
39267;BME280;24967;51.154;13.812;2023-08-17T04:38:58;99726.16;;;20.85;89.08
39267;BME280;24967;51.154;13.812;2023-08-17T04:41:24;99732.56;;;20.90;89.02
39267;BME280;24967;51.154;13.812;2023-08-17T04:43:51;99734.66;;;20.95;89.13
39267;BME280;24967;51.154;13.812;2023-08-17T04:46:17;99734.00;;;21.06;89.15
39267;BME280;24967;51.154;13.812;2023-08-17T04:48:45;99728.31;;;21.14;88.92
39267;BME280;24967;51.154;13.812;2023-08-17T04:51:12;99736.59;;;21.26;88.63
39267;BME280;24967;51.154;13.812;2023-08-17T04:53:38;99732.59;;;21.35;88.35
39267;BME280;24967;51.154;13.812;2023-08-17T04:56:05;99746.91;;;21.49;88.09
39267;BME280;24967;51.154;13.812;2023-08-17T04:58:32;99744.13;;;21.62;87.77
39267;BME280;24967;51.154;13.812;2023-08-17T05:00:59;99749.47;;;21.76;88.07
39267;BME280;24967;51.154;13.812;2023-08-17T05:03:25;99751.44;;;21.87;88.48
39267;BME280;24967;51.154;13.812;2023-08-17T05:05:53;99762.06;;;21.88;86.17
39267;BME280;24967;51.154;13.812;2023-08-17T05:08:19;99765.81;;;21.87;85.43
39267;BME280;24967;51.154;13.812;2023-08-17T05:10:47;99773.78;;;21.82;85.24
39267;BME280;24967;51.154;13.812;2023-08-17T05:13:14;99777.56;;;21.75;85.51
39267;BME280;24967;51.154;13.812;2023-08-17T05:15:40;99773.28;;;21.92;84.97
39267;BME280;24967;51.154;13.812;2023-08-17T05:18:07;99773.66;;;21.95;84.33
39267;BME280;24967;51.154;13.812;2023-08-17T05:20:34;99773.94;;;22.19;83.78
39267;BME280;24967;51.154;13.812;2023-08-17T05:23:02;99770.09;;;22.33;83.88
39267;BME280;24967;51.154;13.812;2023-08-17T05:25:29;99766.53;;;22.33;81.84
39267;BME280;24967;51.154;13.812;2023-08-17T05:27:56;99771.25;;;22.62;81.96
39267;BME280;24967;51.154;13.812;2023-08-17T05:30:22;99752.63;;;22.73;80.28
39267;BME280;24967;51.154;13.812;2023-08-17T05:32:49;99761.69;;;22.78;79.09
39267;BME280;24967;51.154;13.812;2023-08-17T05:35:15;99764.41;;;23.03;79.33
39267;BME280;24967;51.154;13.812;2023-08-17T05:37:42;99750.06;;;23.33;79.09
39267;BME280;24967;51.154;13.812;2023-08-17T05:40:10;99756.88;;;23.66;79.04
39267;BME280;24967;51.154;13.812;2023-08-17T05:42:37;99761.59;;;23.89;80.54
39267;BME280;24967;51.154;13.812;2023-08-17T05:45:04;99764.84;;;24.09;77.94
39267;BME280;24967;51.154;13.812;2023-08-17T05:47:31;99765.59;;;24.40;77.02
39267;BME280;24967;51.154;13.812;2023-08-17T05:49:57;99771.88;;;24.76;75.74
39267;BME280;24967;51.154;13.812;2023-08-17T05:52:24;99771.47;;;24.96;75.28
39267;BME280;24967;51.154;13.812;2023-08-17T05:54:51;99777.09;;;25.29;76.15
39267;BME280;24967;51.154;13.812;2023-08-17T05:57:18;99775.53;;;25.45;70.76
39267;BME280;24967;51.154;13.812;2023-08-17T05:59:45;99780.25;;;25.38;70.22
39267;BME280;24967;51.154;13.812;2023-08-17T06:02:11;99788.34;;;25.33;69.49
39267;BME280;24967;51.154;13.812;2023-08-17T06:04:38;99784.56;;;25.22;70.21
39267;BME280;24967;51.154;13.812;2023-08-17T06:07:05;99783.63;;;25.05;70.01
39267;BME280;24967;51.154;13.812;2023-08-17T06:09:32;99793.03;;;24.62;71.23
39267;BME280;24967;51.154;13.812;2023-08-17T06:11:58;99789.19;;;24.28;72.54
39267;BME280;24967;51.154;13.812;2023-08-17T06:14:26;99802.97;;;24.03;73.56
39267;BME280;24967;51.154;13.812;2023-08-17T06:16:53;99803.09;;;24.19;73.63
39267;BME280;24967;51.154;13.812;2023-08-17T06:19:20;99804.09;;;24.37;73.54
39267;BME280;24967;51.154;13.812;2023-08-17T06:21:46;99806.72;;;24.67;73.29
39267;BME280;24967;51.154;13.812;2023-08-17T06:24:12;99793.78;;;25.33;70.32
39267;BME280;24967;51.154;13.812;2023-08-17T06:26:39;99800.00;;;25.74;68.77
39267;BME280;24967;51.154;13.812;2023-08-17T06:29:06;99804.94;;;26.51;66.08
39267;BME280;24967;51.154;13.812;2023-08-17T06:31:33;99805.91;;;26.79;62.30
39267;BME280;24967;51.154;13.812;2023-08-17T06:34:00;99796.41;;;27.03;59.82
39267;BME280;24967;51.154;13.812;2023-08-17T06:36:30;99796.53;;;27.30;58.10
39267;BME280;24967;51.154;13.812;2023-08-17T06:38:57;99801.91;;;27.25;58.84
39267;BME280;24967;51.154;13.812;2023-08-17T06:41:24;99800.31;;;27.51;58.77
39267;BME280;24967;51.154;13.812;2023-08-17T06:43:51;99801.19;;;27.79;56.82
39267;BME280;24967;51.154;13.812;2023-08-17T06:46:17;99808.97;;;28.51;55.81
39267;BME280;24967;51.154;13.812;2023-08-17T06:48:45;99802.22;;;28.64;55.38
39267;BME280;24967;51.154;13.812;2023-08-17T06:51:12;99812.28;;;29.54;52.88
39267;BME280;24967;51.154;13.812;2023-08-17T06:53:38;99803.22;;;29.58;53.24
39267;BME280;24967;51.154;13.812;2023-08-17T06:56:05;99807.06;;;29.52;51.60
39267;BME280;24967;51.154;13.812;2023-08-17T06:58:31;99805.94;;;28.95;52.07
39267;BME280;24967;51.154;13.812;2023-08-17T07:00:58;99808.38;;;28.87;53.43
39267;BME280;24967;51.154;13.812;2023-08-17T07:03:25;99809.38;;;28.70;54.30
39267;BME280;24967;51.154;13.812;2023-08-17T07:05:52;99811.09;;;29.29;54.69
39267;BME280;24967;51.154;13.812;2023-08-17T07:08:19;99794.03;;;30.10;50.60
39267;BME280;24967;51.154;13.812;2023-08-17T07:10:46;99793.75;;;30.89;48.08
39267;BME280;24967;51.154;13.812;2023-08-17T07:13:12;99796.84;;;31.47;45.60
39267;BME280;24967;51.154;13.812;2023-08-17T07:15:39;99803.25;;;32.21;45.61
39267;BME280;24967;51.154;13.812;2023-08-17T07:18:05;99808.34;;;32.38;46.66
39267;BME280;24967;51.154;13.812;2023-08-17T07:20:32;99801.31;;;33.33;45.14
39267;BME280;24967;51.154;13.812;2023-08-17T07:23:00;99802.53;;;34.22;42.46
39267;BME280;24967;51.154;13.812;2023-08-17T07:25:26;99798.69;;;34.04;42.21
39267;BME280;24967;51.154;13.812;2023-08-17T07:27:53;99788.72;;;33.70;42.89
39267;BME280;24967;51.154;13.812;2023-08-17T07:30:19;99790.94;;;33.25;43.36
39267;BME280;24967;51.154;13.812;2023-08-17T07:32:46;99787.16;;;32.92;44.21
39267;BME280;24967;51.154;13.812;2023-08-17T07:35:13;99780.75;;;32.48;44.62
39267;BME280;24967;51.154;13.812;2023-08-17T07:37:39;99781.44;;;32.30;44.47
39267;BME280;24967;51.154;13.812;2023-08-17T07:40:08;99781.69;;;33.16;44.78
39267;BME280;24967;51.154;13.812;2023-08-17T07:42:35;99784.44;;;34.15;41.19
39267;BME280;24967;51.154;13.812;2023-08-17T07:45:02;99778.59;;;34.96;40.34
39267;BME280;24967;51.154;13.812;2023-08-17T07:47:31;99770.81;;;35.76;40.06
39267;BME280;24967;51.154;13.812;2023-08-17T07:49:57;99773.41;;;36.62;37.37
39267;BME280;24967;51.154;13.812;2023-08-17T07:52:24;99771.19;;;37.30;36.09
39267;BME280;24967;51.154;13.812;2023-08-17T07:54:50;99772.25;;;37.78;33.67
39267;BME280;24967;51.154;13.812;2023-08-17T07:57:18;99771.59;;;38.16;34.48
39267;BME280;24967;51.154;13.812;2023-08-17T07:59:45;99769.69;;;38.63;33.15
39267;BME280;24967;51.154;13.812;2023-08-17T08:02:11;99760.69;;;39.05;32.20
39267;BME280;24967;51.154;13.812;2023-08-17T08:04:38;99756.84;;;39.48;31.39
39267;BME280;24967;51.154;13.812;2023-08-17T08:07:05;99736.56;;;39.68;31.85
39267;BME280;24967;51.154;13.812;2023-08-17T08:09:32;99739.97;;;40.07;30.64
39267;BME280;24967;51.154;13.812;2023-08-17T08:11:59;99740.78;;;40.07;29.67
39267;BME280;24967;51.154;13.812;2023-08-17T08:14:27;99727.69;;;40.08;29.54
39267;BME280;24967;51.154;13.812;2023-08-17T08:16:53;99726.25;;;40.35;30.49
39267;BME280;24967;51.154;13.812;2023-08-17T08:19:20;99730.31;;;40.38;30.08
39267;BME280;24967;51.154;13.812;2023-08-17T08:21:46;99726.59;;;40.34;29.92
39267;BME280;24967;51.154;13.812;2023-08-17T08:24:13;99726.03;;;40.40;29.96
39267;BME280;24967;51.154;13.812;2023-08-17T08:26:39;99724.75;;;40.38;29.31
39267;BME280;24967;51.154;13.812;2023-08-17T08:29:06;99736.94;;;40.45;30.05
39267;BME280;24967;51.154;13.812;2023-08-17T08:31:33;99732.00;;;40.63;29.70
39267;BME280;24967;51.154;13.812;2023-08-17T08:34:00;99726.66;;;40.95;29.52
39267;BME280;24967;51.154;13.812;2023-08-17T08:36:26;99723.63;;;41.25;29.09
39267;BME280;24967;51.154;13.812;2023-08-17T08:38:53;99718.31;;;41.07;27.84
39267;BME280;24967;51.154;13.812;2023-08-17T08:41:20;99716.91;;;40.89;29.64
39267;BME280;24967;51.154;13.812;2023-08-17T08:43:47;99713.78;;;40.78;28.78
39267;BME280;24967;51.154;13.812;2023-08-17T08:46:15;99716.81;;;40.85;29.50
39267;BME280;24967;51.154;13.812;2023-08-17T08:48:45;99708.69;;;40.68;30.29
39267;BME280;24967;51.154;13.812;2023-08-17T08:51:20;99717.63;;;40.73;29.04
39267;BME280;24967;51.154;13.812;2023-08-17T08:53:53;99709.94;;;40.58;29.38
39267;BME280;24967;51.154;13.812;2023-08-17T08:56:24;99709.09;;;40.58;28.79
39267;BME280;24967;51.154;13.812;2023-08-17T08:58:52;99711.44;;;40.43;30.07
39267;BME280;24967;51.154;13.812;2023-08-17T09:01:19;99714.25;;;40.80;30.85
39267;BME280;24967;51.154;13.812;2023-08-17T09:03:47;99715.44;;;41.44;29.41
39267;BME280;24967;51.154;13.812;2023-08-17T09:06:15;99719.13;;;41.60;26.41
39267;BME280;24967;51.154;13.812;2023-08-17T09:08:43;99720.03;;;41.12;29.03
39267;BME280;24967;51.154;13.812;2023-08-17T09:11:10;99716.31;;;40.95;29.34
39267;BME280;24967;51.154;13.812;2023-08-17T09:16:04;99712.13;;;40.40;29.11
39267;BME280;24967;51.154;13.812;2023-08-17T09:18:31;99710.75;;;40.01;28.67
39267;BME280;24967;51.154;13.812;2023-08-17T09:20:59;99711.03;;;39.66;30.49
39267;BME280;24967;51.154;13.812;2023-08-17T09:23:25;99707.41;;;39.32;30.52
39267;BME280;24967;51.154;13.812;2023-08-17T09:25:52;99705.72;;;38.81;31.70
39267;BME280;24967;51.154;13.812;2023-08-17T09:28:23;99700.84;;;38.31;31.57
39267;BME280;24967;51.154;13.812;2023-08-17T09:31:27;99709.41;;;37.39;33.87
39267;BME280;24967;51.154;13.812;2023-08-17T09:33:57;99707.28;;;36.69;34.29
39267;BME280;24967;51.154;13.812;2023-08-17T09:36:25;99706.69;;;36.10;34.60
39267;BME280;24967;51.154;13.812;2023-08-17T09:38:52;99704.25;;;35.50;36.58
39267;BME280;24967;51.154;13.812;2023-08-17T09:41:29;99713.84;;;35.16;36.99
39267;BME280;24967;51.154;13.812;2023-08-17T09:43:56;99708.63;;;34.87;38.79
39267;BME280;24967;51.154;13.812;2023-08-17T09:46:25;99703.22;;;34.68;38.72
39267;BME280;24967;51.154;13.812;2023-08-17T09:48:53;99704.19;;;34.45;40.49
39267;BME280;24967;51.154;13.812;2023-08-17T09:51:20;99709.59;;;34.36;39.49
39267;BME280;24967;51.154;13.812;2023-08-17T09:53:52;99711.84;;;34.20;40.59
39267;BME280;24967;51.154;13.812;2023-08-17T09:56:20;99701.06;;;34.05;40.11
39267;BME280;24967;51.154;13.812;2023-08-17T09:58:48;99697.91;;;34.11;41.01
39267;BME280;24967;51.154;13.812;2023-08-17T10:01:15;99696.72;;;34.45;41.34
39267;BME280;24967;51.154;13.812;2023-08-17T10:03:43;99697.88;;;34.58;40.20
39267;BME280;24967;51.154;13.812;2023-08-17T10:06:12;99693.56;;;34.52;41.91
39267;BME280;24967;51.154;13.812;2023-08-17T10:08:42;99684.69;;;34.82;40.96
39267;BME280;24967;51.154;13.812;2023-08-17T10:11:12;99692.06;;;34.87;40.01
39267;BME280;24967;51.154;13.812;2023-08-17T10:13:42;99686.16;;;34.66;40.68
39267;BME280;24967;51.154;13.812;2023-08-17T10:16:23;99686.41;;;34.51;39.62
39267;BME280;24967;51.154;13.812;2023-08-17T10:18:53;99695.06;;;34.16;40.30
39267;BME280;24967;51.154;13.812;2023-08-17T10:21:27;99689.63;;;34.11;40.10
39267;BME280;24967;51.154;13.812;2023-08-17T10:23:55;99686.31;;;33.95;41.21
39267;BME280;24967;51.154;13.812;2023-08-17T10:26:24;99687.13;;;33.96;39.68
39267;BME280;24967;51.154;13.812;2023-08-17T10:28:51;99681.00;;;33.99;42.03
39267;BME280;24967;51.154;13.812;2023-08-17T10:31:19;99680.56;;;33.92;40.90
39267;BME280;24967;51.154;13.812;2023-08-17T10:33:46;99681.88;;;33.81;43.87
39267;BME280;24967;51.154;13.812;2023-08-17T10:39:24;99673.34;;;33.96;42.54
39267;BME280;24967;51.154;13.812;2023-08-17T10:41:53;99680.25;;;33.61;42.48
39267;BME280;24967;51.154;13.812;2023-08-17T10:44:40;99673.47;;;33.72;42.66
39267;BME280;24967;51.154;13.812;2023-08-17T10:47:21;99676.91;;;33.64;43.91
39267;BME280;24967;51.154;13.812;2023-08-17T10:49:48;99667.75;;;33.68;43.05
39267;BME280;24967;51.154;13.812;2023-08-17T10:52:25;99671.56;;;33.54;44.08
39267;BME280;24967;51.154;13.812;2023-08-17T10:54:52;99670.75;;;33.53;43.58
39267;BME280;24967;51.154;13.812;2023-08-17T10:57:29;99670.09;;;33.37;43.88
39267;BME280;24967;51.154;13.812;2023-08-17T11:00:15;99661.47;;;33.25;44.84
39267;BME280;24967;51.154;13.812;2023-08-17T11:02:45;99663.19;;;33.21;45.48
39267;BME280;24967;51.154;13.812;2023-08-17T11:05:12;99660.44;;;33.40;45.72
39267;BME280;24967;51.154;13.812;2023-08-17T11:07:40;99658.94;;;33.47;44.74
39267;BME280;24967;51.154;13.812;2023-08-17T11:13:31;99641.59;;;33.28;44.83
39267;BME280;24967;51.154;13.812;2023-08-17T11:15:58;99644.50;;;33.37;45.19
39267;BME280;24967;51.154;13.812;2023-08-17T11:18:25;99651.34;;;33.39;44.50
39267;BME280;24967;51.154;13.812;2023-08-17T11:20:53;99642.28;;;33.39;44.55
39267;BME280;24967;51.154;13.812;2023-08-17T11:23:20;99638.19;;;33.36;45.00
39267;BME280;24967;51.154;13.812;2023-08-17T11:25:49;99642.56;;;33.37;43.61
39267;BME280;24967;51.154;13.812;2023-08-17T11:28:16;99640.25;;;33.25;44.54
39267;BME280;24967;51.154;13.812;2023-08-17T11:30:44;99645.47;;;33.27;45.77
39267;BME280;24967;51.154;13.812;2023-08-17T11:33:11;99641.00;;;33.31;43.76
39267;BME280;24967;51.154;13.812;2023-08-17T11:35:40;99641.25;;;33.35;45.43
39267;BME280;24967;51.154;13.812;2023-08-17T11:38:07;99639.53;;;33.39;43.48
39267;BME280;24967;51.154;13.812;2023-08-17T11:40:33;99630.72;;;33.37;44.13
39267;BME280;24967;51.154;13.812;2023-08-17T11:43:00;99634.19;;;33.28;44.96
39267;BME280;24967;51.154;13.812;2023-08-17T11:48:50;99631.91;;;32.93;45.35
39267;BME280;24967;51.154;13.812;2023-08-17T11:51:30;99639.84;;;32.94;44.51
39267;BME280;24967;51.154;13.812;2023-08-17T11:53:58;99631.00;;;32.97;45.35
39267;BME280;24967;51.154;13.812;2023-08-17T11:56:25;99634.00;;;33.01;46.61
39267;BME280;24967;51.154;13.812;2023-08-17T11:58:51;99629.84;;;33.03;46.22
39267;BME280;24967;51.154;13.812;2023-08-17T12:01:18;99624.06;;;33.05;46.80
39267;BME280;24967;51.154;13.812;2023-08-17T12:03:44;99626.38;;;33.17;45.54
39267;BME280;24967;51.154;13.812;2023-08-17T12:06:12;99622.94;;;33.06;44.40
39267;BME280;24967;51.154;13.812;2023-08-17T12:08:43;99626.72;;;33.10;45.54
39267;BME280;24967;51.154;13.812;2023-08-17T12:11:09;99617.34;;;33.11;45.85
39267;BME280;24967;51.154;13.812;2023-08-17T12:13:36;99619.34;;;33.24;46.34
39267;BME280;24967;51.154;13.812;2023-08-17T12:16:02;99611.16;;;33.38;46.18
39267;BME280;24967;51.154;13.812;2023-08-17T12:18:32;99604.13;;;33.46;45.20
39267;BME280;24967;51.154;13.812;2023-08-17T12:20:59;99607.28;;;33.39;44.73
39267;BME280;24967;51.154;13.812;2023-08-17T12:23:27;99601.75;;;33.39;44.43
39267;BME280;24967;51.154;13.812;2023-08-17T12:26:18;99600.34;;;33.42;44.26
39267;BME280;24967;51.154;13.812;2023-08-17T12:28:44;99594.25;;;33.45;44.27
39267;BME280;24967;51.154;13.812;2023-08-17T12:31:11;99597.53;;;33.47;44.86
39267;BME280;24967;51.154;13.812;2023-08-17T12:33:37;99584.56;;;33.47;45.00
39267;BME280;24967;51.154;13.812;2023-08-17T12:36:04;99588.91;;;33.67;44.71
39267;BME280;24967;51.154;13.812;2023-08-17T12:38:33;99583.44;;;33.81;44.27
39267;BME280;24967;51.154;13.812;2023-08-17T12:40:59;99574.34;;;33.94;44.37
39267;BME280;24967;51.154;13.812;2023-08-17T12:43:26;99568.69;;;34.05;42.28
39267;BME280;24967;51.154;13.812;2023-08-17T12:45:52;99572.56;;;34.04;43.31
39267;BME280;24967;51.154;13.812;2023-08-17T12:48:19;99572.78;;;34.07;41.12
39267;BME280;24967;51.154;13.812;2023-08-17T12:50:45;99562.72;;;33.97;40.57
39267;BME280;24967;51.154;13.812;2023-08-17T12:53:12;99558.84;;;33.85;41.00
39267;BME280;24967;51.154;13.812;2023-08-17T12:55:40;99549.22;;;33.82;42.24
39267;BME280;24967;51.154;13.812;2023-08-17T13:01:28;99555.56;;;33.69;41.36
39267;BME280;24967;51.154;13.812;2023-08-17T13:03:55;99564.47;;;33.47;40.94
39267;BME280;24967;51.154;13.812;2023-08-17T13:06:21;99562.59;;;33.42;41.05
39267;BME280;24967;51.154;13.812;2023-08-17T13:08:47;99562.16;;;33.35;40.64